sensor_id;sensor_type;location;lat;lon;timestamp;pressure;altitude;pressure_sealevel;temperature
31528;BMP280;10206;48.012;10.030;2023-03-13T00:01:32;94410.72;;;10.18
31528;BMP280;10206;48.012;10.030;2023-03-13T00:03:58;94400.56;;;10.38
31528;BMP280;10206;48.012;10.030;2023-03-13T00:06:35;94399.50;;;10.04
31528;BMP280;10206;48.012;10.030;2023-03-13T00:09:04;94388.00;;;9.96
31528;BMP280;10206;48.012;10.030;2023-03-13T00:11:31;94397.50;;;10.14
31528;BMP280;10206;48.012;10.030;2023-03-13T00:13:59;94399.69;;;9.70
31528;BMP280;10206;48.012;10.030;2023-03-13T00:16:26;94395.22;;;10.20
31528;BMP280;10206;48.012;10.030;2023-03-13T00:18:54;94390.75;;;10.06
31528;BMP280;10206;48.012;10.030;2023-03-13T00:21:23;94373.56;;;10.03
31528;BMP280;10206;48.012;10.030;2023-03-13T00:23:50;94385.59;;;10.00
31528;BMP280;10206;48.012;10.030;2023-03-13T00:26:19;94396.91;;;9.97
31528;BMP280;10206;48.012;10.030;2023-03-13T00:28:46;94392.09;;;9.78
31528;BMP280;10206;48.012;10.030;2023-03-13T00:31:19;94376.81;;;9.92
31528;BMP280;10206;48.012;10.030;2023-03-13T00:33:47;94384.69;;;9.88
31528;BMP280;10206;48.012;10.030;2023-03-13T00:36:16;94383.81;;;9.76
31528;BMP280;10206;48.012;10.030;2023-03-13T00:38:42;94383.84;;;9.95
31528;BMP280;10206;48.012;10.030;2023-03-13T00:41:23;94395.47;;;9.96
31528;BMP280;10206;48.012;10.030;2023-03-13T00:43:50;94386.03;;;9.60
31528;BMP280;10206;48.012;10.030;2023-03-13T00:46:17;94389.47;;;9.61
31528;BMP280;10206;48.012;10.030;2023-03-13T00:48:44;94381.19;;;9.78
31528;BMP280;10206;48.012;10.030;2023-03-13T00:51:11;94386.06;;;9.70
31528;BMP280;10206;48.012;10.030;2023-03-13T00:53:38;94384.16;;;9.63
31528;BMP280;10206;48.012;10.030;2023-03-13T00:56:07;94379.44;;;9.64
31528;BMP280;10206;48.012;10.030;2023-03-13T00:58:35;94386.66;;;9.78
31528;BMP280;10206;48.012;10.030;2023-03-13T01:01:09;94376.72;;;9.64
31528;BMP280;10206;48.012;10.030;2023-03-13T01:03:36;94373.16;;;9.71
31528;BMP280;10206;48.012;10.030;2023-03-13T01:06:05;94371.28;;;9.64
31528;BMP280;10206;48.012;10.030;2023-03-13T01:08:32;94372.00;;;9.64
31528;BMP280;10206;48.012;10.030;2023-03-13T01:13:26;94354.47;;;9.84
31528;BMP280;10206;48.012;10.030;2023-03-13T01:15:52;94359.22;;;9.93
31528;BMP280;10206;48.012;10.030;2023-03-13T01:18:18;94357.88;;;9.85
31528;BMP280;10206;48.012;10.030;2023-03-13T01:20:44;94355.91;;;9.95
31528;BMP280;10206;48.012;10.030;2023-03-13T01:23:10;94346.22;;;9.75
31528;BMP280;10206;48.012;10.030;2023-03-13T01:25:36;94347.28;;;9.98
31528;BMP280;10206;48.012;10.030;2023-03-13T01:28:03;94343.38;;;9.82
31528;BMP280;10206;48.012;10.030;2023-03-13T01:30:29;94337.41;;;9.93
31528;BMP280;10206;48.012;10.030;2023-03-13T01:32:56;94337.75;;;9.71
31528;BMP280;10206;48.012;10.030;2023-03-13T01:35:22;94334.09;;;9.95
31528;BMP280;10206;48.012;10.030;2023-03-13T01:37:48;94327.66;;;9.90
31528;BMP280;10206;48.012;10.030;2023-03-13T01:40:14;94341.00;;;10.05
31528;BMP280;10206;48.012;10.030;2023-03-13T01:42:57;94334.25;;;9.97
31528;BMP280;10206;48.012;10.030;2023-03-13T01:48:19;94327.09;;;10.20
31528;BMP280;10206;48.012;10.030;2023-03-13T01:50:45;94331.16;;;10.19
31528;BMP280;10206;48.012;10.030;2023-03-13T01:53:12;94328.25;;;10.17
31528;BMP280;10206;48.012;10.030;2023-03-13T01:55:38;94326.53;;;10.32
31528;BMP280;10206;48.012;10.030;2023-03-13T01:58:04;94318.50;;;10.24
31528;BMP280;10206;48.012;10.030;2023-03-13T02:00:33;94312.47;;;10.06
31528;BMP280;10206;48.012;10.030;2023-03-13T02:03:04;94306.00;;;10.30
31528;BMP280;10206;48.012;10.030;2023-03-13T02:05:31;94317.34;;;10.56
31528;BMP280;10206;48.012;10.030;2023-03-13T02:08:19;94316.78;;;10.48
31528;BMP280;10206;48.012;10.030;2023-03-13T02:11:15;94313.06;;;10.53
31528;BMP280;10206;48.012;10.030;2023-03-13T02:13:44;94325.81;;;10.60
31528;BMP280;10206;48.012;10.030;2023-03-13T02:16:11;94323.38;;;10.64
31528;BMP280;10206;48.012;10.030;2023-03-13T02:18:37;94319.81;;;10.61
31528;BMP280;10206;48.012;10.030;2023-03-13T02:21:13;94318.06;;;10.56
31528;BMP280;10206;48.012;10.030;2023-03-13T02:23:49;94329.13;;;10.68
31528;BMP280;10206;48.012;10.030;2023-03-13T02:26:17;94324.09;;;10.74
31528;BMP280;10206;48.012;10.030;2023-03-13T02:28:43;94320.38;;;10.60
31528;BMP280;10206;48.012;10.030;2023-03-13T02:31:10;94319.09;;;10.42
31528;BMP280;10206;48.012;10.030;2023-03-13T02:33:39;94314.78;;;10.67
31528;BMP280;10206;48.012;10.030;2023-03-13T02:36:06;94318.78;;;10.57
31528;BMP280;10206;48.012;10.030;2023-03-13T02:38:38;94322.06;;;10.55
31528;BMP280;10206;48.012;10.030;2023-03-13T02:41:05;94317.34;;;10.56
31528;BMP280;10206;48.012;10.030;2023-03-13T02:43:36;94315.91;;;10.64
31528;BMP280;10206;48.012;10.030;2023-03-13T02:46:10;94310.28;;;10.62
31528;BMP280;10206;48.012;10.030;2023-03-13T02:48:42;94319.66;;;10.59
31528;BMP280;10206;48.012;10.030;2023-03-13T02:53:50;94320.06;;;10.65
31528;BMP280;10206;48.012;10.030;2023-03-13T02:56:20;94318.91;;;10.49
31528;BMP280;10206;48.012;10.030;2023-03-13T02:58:47;94312.31;;;10.81
31528;BMP280;10206;48.012;10.030;2023-03-13T03:01:13;94303.97;;;10.69
31528;BMP280;10206;48.012;10.030;2023-03-13T03:03:39;94294.22;;;10.76
31528;BMP280;10206;48.012;10.030;2023-03-13T03:06:06;94302.69;;;10.80
31528;BMP280;10206;48.012;10.030;2023-03-13T03:08:33;94298.06;;;10.82
31528;BMP280;10206;48.012;10.030;2023-03-13T03:11:00;94299.22;;;10.79
31528;BMP280;10206;48.012;10.030;2023-03-13T03:13:26;94291.94;;;10.63
31528;BMP280;10206;48.012;10.030;2023-03-13T03:15:53;94300.34;;;10.95
31528;BMP280;10206;48.012;10.030;2023-03-13T03:18:19;94283.66;;;11.01
31528;BMP280;10206;48.012;10.030;2023-03-13T03:20:45;94290.13;;;10.96
31528;BMP280;10206;48.012;10.030;2023-03-13T03:23:11;94288.84;;;11.07
31528;BMP280;10206;48.012;10.030;2023-03-13T03:25:37;94289.19;;;11.22
31528;BMP280;10206;48.012;10.030;2023-03-13T03:28:03;94285.19;;;11.14
31528;BMP280;10206;48.012;10.030;2023-03-13T03:30:29;94282.25;;;11.31
31528;BMP280;10206;48.012;10.030;2023-03-13T03:32:55;94275.66;;;11.24
31528;BMP280;10206;48.012;10.030;2023-03-13T03:35:22;94272.81;;;11.22
31528;BMP280;10206;48.012;10.030;2023-03-13T03:37:48;94273.06;;;11.26
31528;BMP280;10206;48.012;10.030;2023-03-13T03:40:14;94263.97;;;11.33
31528;BMP280;10206;48.012;10.030;2023-03-13T03:42:40;94256.56;;;11.24
31528;BMP280;10206;48.012;10.030;2023-03-13T03:45:06;94252.22;;;11.31
31528;BMP280;10206;48.012;10.030;2023-03-13T03:47:33;94251.81;;;11.25
31528;BMP280;10206;48.012;10.030;2023-03-13T03:49:59;94251.38;;;11.28
31528;BMP280;10206;48.012;10.030;2023-03-13T03:52:25;94251.38;;;11.28
31528;BMP280;10206;48.012;10.030;2023-03-13T03:54:51;94252.28;;;11.21
31528;BMP280;10206;48.012;10.030;2023-03-13T03:57:17;94252.28;;;11.21
31528;BMP280;10206;48.012;10.030;2023-03-13T03:59:43;94251.41;;;11.19
31528;BMP280;10206;48.012;10.030;2023-03-13T04:02:09;94240.66;;;11.11
31528;BMP280;10206;48.012;10.030;2023-03-13T04:04:36;94260.00;;;11.25
31528;BMP280;10206;48.012;10.030;2023-03-13T04:07:02;94255.41;;;10.87
31528;BMP280;10206;48.012;10.030;2023-03-13T04:09:28;94259.97;;;11.34
31528;BMP280;10206;48.012;10.030;2023-03-13T04:11:54;94241.91;;;11.29
31528;BMP280;10206;48.012;10.030;2023-03-13T04:14:20;94230.31;;;11.40
31528;BMP280;10206;48.012;10.030;2023-03-13T04:16:46;94230.78;;;11.37
31528;BMP280;10206;48.012;10.030;2023-03-13T04:19:12;94233.56;;;11.27
31528;BMP280;10206;48.012;10.030;2023-03-13T04:21:38;94226.03;;;11.16
31528;BMP280;10206;48.012;10.030;2023-03-13T04:24:04;94222.56;;;11.16
31528;BMP280;10206;48.012;10.030;2023-03-13T04:26:30;94231.16;;;11.22
31528;BMP280;10206;48.012;10.030;2023-03-13T04:28:57;94219.13;;;11.36
31528;BMP280;10206;48.012;10.030;2023-03-13T04:31:23;94215.13;;;11.37
31528;BMP280;10206;48.012;10.030;2023-03-13T04:33:49;94210.28;;;11.26
31528;BMP280;10206;48.012;10.030;2023-03-13T04:36:15;94211.94;;;11.41
31528;BMP280;10206;48.012;10.030;2023-03-13T04:38:41;94205.28;;;10.92
31528;BMP280;10206;48.012;10.030;2023-03-13T04:41:07;94199.84;;;10.92
31528;BMP280;10206;48.012;10.030;2023-03-13T04:43:33;94205.31;;;11.23
31528;BMP280;10206;48.012;10.030;2023-03-13T04:45:59;94207.84;;;10.99
31528;BMP280;10206;48.012;10.030;2023-03-13T04:48:25;94210.25;;;11.05
31528;BMP280;10206;48.012;10.030;2023-03-13T04:50:51;94212.94;;;11.45
31528;BMP280;10206;48.012;10.030;2023-03-13T04:53:17;94208.59;;;11.42
31528;BMP280;10206;48.012;10.030;2023-03-13T04:55:44;94193.09;;;11.45
31528;BMP280;10206;48.012;10.030;2023-03-13T04:58:10;94181.09;;;11.08
31528;BMP280;10206;48.012;10.030;2023-03-13T05:00:39;94170.91;;;11.29
31528;BMP280;10206;48.012;10.030;2023-03-13T05:03:05;94162.75;;;11.20
31528;BMP280;10206;48.012;10.030;2023-03-13T05:05:33;94159.66;;;11.35
31528;BMP280;10206;48.012;10.030;2023-03-13T05:08:00;94157.78;;;11.16
31528;BMP280;10206;48.012;10.030;2023-03-13T05:10:26;94156.16;;;11.23
31528;BMP280;10206;48.012;10.030;2023-03-13T05:12:53;94161.81;;;11.36
31528;BMP280;10206;48.012;10.030;2023-03-13T05:15:19;94166.97;;;10.90
31528;BMP280;10206;48.012;10.030;2023-03-13T05:17:45;94184.59;;;11.62
31528;BMP280;10206;48.012;10.030;2023-03-13T05:20:11;94184.75;;;11.22
31528;BMP280;10206;48.012;10.030;2023-03-13T05:22:38;94179.88;;;11.41
31528;BMP280;10206;48.012;10.030;2023-03-13T05:25:04;94182.56;;;11.51
31528;BMP280;10206;48.012;10.030;2023-03-13T05:27:30;94184.03;;;11.21
31528;BMP280;10206;48.012;10.030;2023-03-13T05:29:57;94174.00;;;11.14
31528;BMP280;10206;48.012;10.030;2023-03-13T05:32:23;94180.13;;;11.24
31528;BMP280;10206;48.012;10.030;2023-03-13T05:34:49;94183.72;;;11.48
31528;BMP280;10206;48.012;10.030;2023-03-13T05:37:15;94184.69;;;11.73
31528;BMP280;10206;48.012;10.030;2023-03-13T05:39:41;94183.72;;;11.48
31528;BMP280;10206;48.012;10.030;2023-03-13T05:42:07;94177.28;;;11.64
31528;BMP280;10206;48.012;10.030;2023-03-13T05:44:33;94174.47;;;11.74
31528;BMP280;10206;48.012;10.030;2023-03-13T05:46:59;94169.84;;;11.77
31528;BMP280;10206;48.012;10.030;2023-03-13T05:49:25;94180.22;;;11.68
31528;BMP280;10206;48.012;10.030;2023-03-13T05:51:51;94173.47;;;11.69
31528;BMP280;10206;48.012;10.030;2023-03-13T05:54:17;94156.56;;;11.83
31528;BMP280;10206;48.012;10.030;2023-03-13T05:56:43;94154.31;;;11.91
31528;BMP280;10206;48.012;10.030;2023-03-13T05:59:09;94155.66;;;11.68
31528;BMP280;10206;48.012;10.030;2023-03-13T06:01:36;94161.72;;;12.00
31528;BMP280;10206;48.012;10.030;2023-03-13T06:04:02;94149.84;;;12.07
31528;BMP280;10206;48.012;10.030;2023-03-13T06:06:28;94152.22;;;12.01
31528;BMP280;10206;48.012;10.030;2023-03-13T06:08:54;94142.25;;;12.05
31528;BMP280;10206;48.012;10.030;2023-03-13T06:11:20;94142.16;;;12.15
31528;BMP280;10206;48.012;10.030;2023-03-13T06:13:46;94147.69;;;11.94
31528;BMP280;10206;48.012;10.030;2023-03-13T06:16:13;94140.97;;;12.18
31528;BMP280;10206;48.012;10.030;2023-03-13T06:18:39;94148.28;;;11.92
31528;BMP280;10206;48.012;10.030;2023-03-13T06:21:05;94147.63;;;12.26
31528;BMP280;10206;48.012;10.030;2023-03-13T06:23:31;94141.44;;;12.14
31528;BMP280;10206;48.012;10.030;2023-03-13T06:25:59;94128.53;;;12.38
31528;BMP280;10206;48.012;10.030;2023-03-13T06:28:25;94133.84;;;12.13
31528;BMP280;10206;48.012;10.030;2023-03-13T06:30:51;94129.56;;;12.10
31528;BMP280;10206;48.012;10.030;2023-03-13T06:33:17;94122.94;;;12.47
31528;BMP280;10206;48.012;10.030;2023-03-13T06:35:43;94119.13;;;12.41
31528;BMP280;10206;48.012;10.030;2023-03-13T06:38:10;94115.91;;;12.10
31528;BMP280;10206;48.012;10.030;2023-03-13T06:40:36;94120.19;;;12.36
31528;BMP280;10206;48.012;10.030;2023-03-13T06:43:03;94119.59;;;12.26
31528;BMP280;10206;48.012;10.030;2023-03-13T06:45:29;94132.81;;;12.53
31528;BMP280;10206;48.012;10.030;2023-03-13T06:47:55;94127.47;;;12.66
31528;BMP280;10206;48.012;10.030;2023-03-13T06:50:21;94124.47;;;12.62
31528;BMP280;10206;48.012;10.030;2023-03-13T06:52:47;94123.06;;;12.61
31528;BMP280;10206;48.012;10.030;2023-03-13T06:55:13;94116.16;;;12.60
31528;BMP280;10206;48.012;10.030;2023-03-13T06:57:40;94113.94;;;12.45
31528;BMP280;10206;48.012;10.030;2023-03-13T07:00:07;94107.22;;;12.60
31528;BMP280;10206;48.012;10.030;2023-03-13T07:02:36;94109.53;;;12.52
31528;BMP280;10206;48.012;10.030;2023-03-13T07:05:02;94105.00;;;12.44
31528;BMP280;10206;48.012;10.030;2023-03-13T07:07:31;94102.59;;;12.62
31528;BMP280;10206;48.012;10.030;2023-03-13T07:09:58;94110.81;;;12.51
31528;BMP280;10206;48.012;10.030;2023-03-13T07:12:24;94115.56;;;12.62
31528;BMP280;10206;48.012;10.030;2023-03-13T07:14:50;94122.34;;;12.84
31528;BMP280;10206;48.012;10.030;2023-03-13T07:17:16;94112.56;;;12.81
31528;BMP280;10206;48.012;10.030;2023-03-13T07:19:42;94114.03;;;12.70
31528;BMP280;10206;48.012;10.030;2023-03-13T07:22:08;94110.66;;;12.95
31528;BMP280;10206;48.012;10.030;2023-03-13T07:24:35;94099.69;;;13.06
31528;BMP280;10206;48.012;10.030;2023-03-13T07:27:01;94107.41;;;13.10
31528;BMP280;10206;48.012;10.030;2023-03-13T07:29:27;94103.06;;;12.59
31528;BMP280;10206;48.012;10.030;2023-03-13T07:31:53;94108.88;;;12.99
31528;BMP280;10206;48.012;10.030;2023-03-13T07:34:19;94113.59;;;13.10
31528;BMP280;10206;48.012;10.030;2023-03-13T07:36:45;94123.00;;;13.19
31528;BMP280;10206;48.012;10.030;2023-03-13T07:39:11;94121.69;;;13.57
31528;BMP280;10206;48.012;10.030;2023-03-13T07:41:38;94132.16;;;13.85
31528;BMP280;10206;48.012;10.030;2023-03-13T07:44:04;94129.28;;;14.09
31528;BMP280;10206;48.012;10.030;2023-03-13T07:46:30;94142.25;;;14.33
31528;BMP280;10206;48.012;10.030;2023-03-13T07:48:56;94141.16;;;14.52
31528;BMP280;10206;48.012;10.030;2023-03-13T07:51:24;94130.88;;;14.52
31528;BMP280;10206;48.012;10.030;2023-03-13T07:53:51;94139.03;;;15.05
31528;BMP280;10206;48.012;10.030;2023-03-13T07:56:21;94134.16;;;14.90
31528;BMP280;10206;48.012;10.030;2023-03-13T07:58:48;94135.81;;;15.37
31528;BMP280;10206;48.012;10.030;2023-03-13T08:01:17;94139.16;;;15.36
31528;BMP280;10206;48.012;10.030;2023-03-13T08:03:44;94144.00;;;15.08
31528;BMP280;10206;48.012;10.030;2023-03-13T08:06:13;94146.19;;;15.39
31528;BMP280;10206;48.012;10.030;2023-03-13T08:08:40;94151.69;;;15.39
31528;BMP280;10206;48.012;10.030;2023-03-13T08:11:14;94155.91;;;14.85
31528;BMP280;10206;48.012;10.030;2023-03-13T08:13:41;94146.16;;;14.82
31528;BMP280;10206;48.012;10.030;2023-03-13T08:16:13;94154.78;;;15.04
31528;BMP280;10206;48.012;10.030;2023-03-13T08:18:44;94145.56;;;15.40
31528;BMP280;10206;48.012;10.030;2023-03-13T08:21:12;94158.41;;;15.36
31528;BMP280;10206;48.012;10.030;2023-03-13T08:23:39;94158.34;;;15.92
31528;BMP280;10206;48.012;10.030;2023-03-13T08:26:09;94168.66;;;15.78
31528;BMP280;10206;48.012;10.030;2023-03-13T08:28:37;94160.47;;;16.72
31528;BMP280;10206;48.012;10.030;2023-03-13T08:31:11;94155.34;;;16.33
31528;BMP280;10206;48.012;10.030;2023-03-13T08:33:38;94148.31;;;16.77
31528;BMP280;10206;48.012;10.030;2023-03-13T08:38:39;94152.88;;;16.39
31528;BMP280;10206;48.012;10.030;2023-03-13T08:41:07;94145.22;;;16.69
31528;BMP280;10206;48.012;10.030;2023-03-13T08:43:34;94138.78;;;16.95
31528;BMP280;10206;48.012;10.030;2023-03-13T08:46:00;94132.50;;;17.10
31528;BMP280;10206;48.012;10.030;2023-03-13T08:48:26;94132.22;;;17.20
31528;BMP280;10206;48.012;10.030;2023-03-13T08:51:10;94131.63;;;17.06
31528;BMP280;10206;48.012;10.030;2023-03-13T08:53:37;94128.88;;;17.06
31528;BMP280;10206;48.012;10.030;2023-03-13T08:56:04;94129.06;;;17.27
31528;BMP280;10206;48.012;10.030;2023-03-13T08:58:31;94123.00;;;16.65
31528;BMP280;10206;48.012;10.030;2023-03-13T09:01:09;94110.94;;;17.05
31528;BMP280;10206;48.012;10.030;2023-03-13T09:03:36;94111.66;;;17.23
31528;BMP280;10206;48.012;10.030;2023-03-13T09:06:02;94109.44;;;17.02
31528;BMP280;10206;48.012;10.030;2023-03-13T09:08:30;94119.41;;;17.79
31528;BMP280;10206;48.012;10.030;2023-03-13T09:11:01;94111.97;;;17.66
31528;BMP280;10206;48.012;10.030;2023-03-13T09:13:29;94111.25;;;17.83
31528;BMP280;10206;48.012;10.030;2023-03-13T09:16:01;94105.09;;;17.67
31528;BMP280;10206;48.012;10.030;2023-03-13T09:18:28;94110.72;;;17.69
31528;BMP280;10206;48.012;10.030;2023-03-13T09:20:55;94112.84;;;17.53
31528;BMP280;10206;48.012;10.030;2023-03-13T09:23:21;94107.56;;;17.41
31528;BMP280;10206;48.012;10.030;2023-03-13T09:25:51;94104.03;;;17.39
31528;BMP280;10206;48.012;10.030;2023-03-13T09:28:17;94109.16;;;17.64
31528;BMP280;10206;48.012;10.030;2023-03-13T09:30:43;94100.63;;;17.76
31528;BMP280;10206;48.012;10.030;2023-03-13T09:33:10;94098.16;;;18.21
31528;BMP280;10206;48.012;10.030;2023-03-13T09:35:38;94090.41;;;17.43
31528;BMP280;10206;48.012;10.030;2023-03-13T09:38:04;94093.94;;;18.00
31528;BMP280;10206;48.012;10.030;2023-03-13T09:40:37;94097.00;;;18.08
31528;BMP280;10206;48.012;10.030;2023-03-13T09:43:03;94095.00;;;17.91
31528;BMP280;10206;48.012;10.030;2023-03-13T09:45:32;94074.81;;;17.50
31528;BMP280;10206;48.012;10.030;2023-03-13T09:48:17;94084.81;;;17.96
31528;BMP280;10206;48.012;10.030;2023-03-13T09:51:01;94080.06;;;17.61
31528;BMP280;10206;48.012;10.030;2023-03-13T09:53:42;94068.31;;;17.78
31528;BMP280;10206;48.012;10.030;2023-03-13T09:56:24;94062.47;;;18.88
31528;BMP280;10206;48.012;10.030;2023-03-13T09:59:05;94060.41;;;18.47
31528;BMP280;10206;48.012;10.030;2023-03-13T10:01:36;94061.38;;;18.56
31528;BMP280;10206;48.012;10.030;2023-03-13T10:04:07;94057.28;;;18.57
31528;BMP280;10206;48.012;10.030;2023-03-13T10:06:43;94061.63;;;18.83
31528;BMP280;10206;48.012;10.030;2023-03-13T10:09:31;94061.25;;;18.52
31528;BMP280;10206;48.012;10.030;2023-03-13T10:12:15;94054.47;;;18.15
31528;BMP280;10206;48.012;10.030;2023-03-13T10:17:32;94055.97;;;18.79
31528;BMP280;10206;48.012;10.030;2023-03-13T10:22:39;94048.41;;;19.01
31528;BMP280;10206;48.012;10.030;2023-03-13T10:27:53;94045.00;;;19.48
31528;BMP280;10206;48.012;10.030;2023-03-13T10:30:26;94048.44;;;19.25
31528;BMP280;10206;48.012;10.030;2023-03-13T10:33:14;94044.97;;;19.24
31528;BMP280;10206;48.012;10.030;2023-03-13T10:35:42;94042.53;;;18.91
31528;BMP280;10206;48.012;10.030;2023-03-13T10:38:14;94048.88;;;19.63
31528;BMP280;10206;48.012;10.030;2023-03-13T10:40:42;94038.13;;;19.04
31528;BMP280;10206;48.012;10.030;2023-03-13T10:43:18;94048.81;;;19.37
31528;BMP280;10206;48.012;10.030;2023-03-13T10:45:45;94040.59;;;19.39
31528;BMP280;10206;48.012;10.030;2023-03-13T10:50:46;94042.75;;;19.43
31528;BMP280;10206;48.012;10.030;2023-03-13T10:53:34;94034.22;;;19.82
31528;BMP280;10206;48.012;10.030;2023-03-13T10:56:12;94035.53;;;19.55
31528;BMP280;10206;48.012;10.030;2023-03-13T10:58:47;94041.56;;;19.97
31528;BMP280;10206;48.012;10.030;2023-03-13T11:01:26;94031.69;;;19.66
31528;BMP280;10206;48.012;10.030;2023-03-13T11:04:28;94033.19;;;19.69
31528;BMP280;10206;48.012;10.030;2023-03-13T11:07:05;94039.94;;;20.13
31528;BMP280;10206;48.012;10.030;2023-03-13T11:09:36;94022.19;;;20.22
31528;BMP280;10206;48.012;10.030;2023-03-13T11:12:13;94029.16;;;20.25
31528;BMP280;10206;48.012;10.030;2023-03-13T11:14:44;94020.41;;;20.07
31528;BMP280;10206;48.012;10.030;2023-03-13T11:17:39;94020.41;;;20.07
31528;BMP280;10206;48.012;10.030;2023-03-13T11:20:25;94019.44;;;20.50
31528;BMP280;10206;48.012;10.030;2023-03-13T11:30:59;94007.41;;;20.97
31528;BMP280;10206;48.012;10.030;2023-03-13T11:33:47;94002.28;;;21.15
31528;BMP280;10206;48.012;10.030;2023-03-13T11:36:31;93994.47;;;21.39
31528;BMP280;10206;48.012;10.030;2023-03-13T11:41:59;93987.25;;;21.60
31528;BMP280;10206;48.012;10.030;2023-03-13T11:58:51;93947.31;;;22.12
31528;BMP280;10206;48.012;10.030;2023-03-13T12:01:25;93952.16;;;22.12
31528;BMP280;10206;48.012;10.030;2023-03-13T12:04:12;93947.84;;;22.44
31528;BMP280;10206;48.012;10.030;2023-03-13T12:06:41;93936.44;;;22.70
31528;BMP280;10206;48.012;10.030;2023-03-13T12:09:28;93933.53;;;22.20
31528;BMP280;10206;48.012;10.030;2023-03-13T12:11:56;93927.06;;;22.49
31528;BMP280;10206;48.012;10.030;2023-03-13T12:14:35;93932.44;;;22.81
31528;BMP280;10206;48.012;10.030;2023-03-13T12:17:28;93928.56;;;22.54
31528;BMP280;10206;48.012;10.030;2023-03-13T12:20:05;93916.19;;;22.20
31528;BMP280;10206;48.012;10.030;2023-03-13T12:22:53;93911.63;;;22.38
31528;BMP280;10206;48.012;10.030;2023-03-13T12:25:27;93891.03;;;22.55
31528;BMP280;10206;48.012;10.030;2023-03-13T12:28:42;93896.44;;;22.95
31528;BMP280;10206;48.012;10.030;2023-03-13T12:41:43;93863.34;;;23.19
31528;BMP280;10206;48.012;10.030;2023-03-13T12:44:17;93848.22;;;23.32
31528;BMP280;10206;48.012;10.030;2023-03-13T12:46:46;93850.38;;;22.82
31528;BMP280;10206;48.012;10.030;2023-03-13T12:54:33;93818.72;;;23.79
31528;BMP280;10206;48.012;10.030;2023-03-13T12:59:54;93812.34;;;23.66
31528;BMP280;10206;48.012;10.030;2023-03-13T13:02:24;93789.06;;;22.70
31528;BMP280;10206;48.012;10.030;2023-03-13T13:04:53;93795.19;;;22.58
31528;BMP280;10206;48.012;10.030;2023-03-13T13:12:47;93787.03;;;22.75
31528;BMP280;10206;48.012;10.030;2023-03-13T13:15:32;93776.75;;;22.89
31528;BMP280;10206;48.012;10.030;2023-03-13T13:18:31;93778.59;;;22.69
31528;BMP280;10206;48.012;10.030;2023-03-13T13:23:39;93744.75;;;22.28
31528;BMP280;10206;48.012;10.030;2023-03-13T13:28:57;93726.59;;;22.79
31528;BMP280;10206;48.012;10.030;2023-03-13T13:36:58;93703.25;;;22.44
31528;BMP280;10206;48.012;10.030;2023-03-13T13:41:54;93701.00;;;22.91
31528;BMP280;10206;48.012;10.030;2023-03-13T13:44:24;93690.88;;;22.55
31528;BMP280;10206;48.012;10.030;2023-03-13T13:46:52;93691.25;;;22.30
31528;BMP280;10206;48.012;10.030;2023-03-13T13:49:20;93686.75;;;22.58
31528;BMP280;10206;48.012;10.030;2023-03-13T13:57:14;93667.31;;;22.63
31528;BMP280;10206;48.012;10.030;2023-03-13T14:02:37;93653.28;;;22.52
31528;BMP280;10206;48.012;10.030;2023-03-13T14:10:38;93637.97;;;22.47
31528;BMP280;10206;48.012;10.030;2023-03-13T14:13:14;93643.31;;;21.76
31528;BMP280;10206;48.012;10.030;2023-03-13T14:15:48;93634.50;;;21.91
31528;BMP280;10206;48.012;10.030;2023-03-13T14:18:22;93621.09;;;21.76
31528;BMP280;10206;48.012;10.030;2023-03-13T14:20:53;93610.56;;;22.22
31528;BMP280;10206;48.012;10.030;2023-03-13T14:23:34;93608.44;;;22.16
31528;BMP280;10206;48.012;10.030;2023-03-13T14:26:24;93612.13;;;22.35
31528;BMP280;10206;48.012;10.030;2023-03-13T14:28:58;93600.03;;;22.10
31528;BMP280;10206;48.012;10.030;2023-03-13T14:31:30;93588.13;;;22.02
31528;BMP280;10206;48.012;10.030;2023-03-13T14:33:58;93585.13;;;21.84
31528;BMP280;10206;48.012;10.030;2023-03-13T14:36:25;93589.84;;;21.73
31528;BMP280;10206;48.012;10.030;2023-03-13T14:38:58;93576.16;;;21.89
31528;BMP280;10206;48.012;10.030;2023-03-13T14:41:34;93569.97;;;21.93
31528;BMP280;10206;48.012;10.030;2023-03-13T14:44:06;93557.63;;;22.06
31528;BMP280;10206;48.012;10.030;2023-03-13T14:46:40;93561.69;;;21.97
31528;BMP280;10206;48.012;10.030;2023-03-13T14:49:27;93565.19;;;21.99
31528;BMP280;10206;48.012;10.030;2023-03-13T14:52:13;93559.88;;;22.21
31528;BMP280;10206;48.012;10.030;2023-03-13T14:57:23;93545.47;;;21.75
31528;BMP280;10206;48.012;10.030;2023-03-13T14:59:50;93537.47;;;22.03
31528;BMP280;10206;48.012;10.030;2023-03-13T15:02:26;93534.38;;;21.79
31528;BMP280;10206;48.012;10.030;2023-03-13T15:05:03;93527.00;;;21.42
31528;BMP280;10206;48.012;10.030;2023-03-13T15:07:40;93522.44;;;21.67
31528;BMP280;10206;48.012;10.030;2023-03-13T15:10:31;93512.63;;;21.60
31528;BMP280;10206;48.012;10.030;2023-03-13T15:12:58;93525.44;;;21.83
31528;BMP280;10206;48.012;10.030;2023-03-13T15:15:24;93514.78;;;22.25
31528;BMP280;10206;48.012;10.030;2023-03-13T15:17:50;93509.09;;;22.15
31528;BMP280;10206;48.012;10.030;2023-03-13T15:20:16;93503.91;;;21.81
31528;BMP280;10206;48.012;10.030;2023-03-13T15:22:44;93498.34;;;21.81
31528;BMP280;10206;48.012;10.030;2023-03-13T15:25:18;93483.25;;;21.98
31528;BMP280;10206;48.012;10.030;2023-03-13T15:27:44;93481.31;;;21.49
31528;BMP280;10206;48.012;10.030;2023-03-13T15:30:21;93468.13;;;21.52
31528;BMP280;10206;48.012;10.030;2023-03-13T15:32:49;93474.28;;;20.49
31528;BMP280;10206;48.012;10.030;2023-03-13T15:37:47;93461.59;;;20.79
31528;BMP280;10206;48.012;10.030;2023-03-13T15:40:15;93473.63;;;20.96
31528;BMP280;10206;48.012;10.030;2023-03-13T15:42:41;93459.16;;;20.56
31528;BMP280;10206;48.012;10.030;2023-03-13T15:45:07;93458.63;;;20.65
31528;BMP280;10206;48.012;10.030;2023-03-13T15:47:34;93449.66;;;20.67
31528;BMP280;10206;48.012;10.030;2023-03-13T15:50:00;93444.16;;;20.27
31528;BMP280;10206;48.012;10.030;2023-03-13T15:52:27;93445.25;;;20.52
31528;BMP280;10206;48.012;10.030;2023-03-13T15:54:53;93443.09;;;20.48